sensor_id;sensor_type;location;lat;lon;timestamp;pressure;altitude;pressure_sealevel;temperature;humidity
72942;BME280;69665;55.822;37.330;2023-04-29T00:01:05;99295.72;;;6.35;54.33
72942;BME280;69665;55.822;37.330;2023-04-29T00:03:30;99303.38;;;6.42;54.72
72942;BME280;69665;55.822;37.330;2023-04-29T00:06:00;99302.53;;;6.40;55.82
72942;BME280;69665;55.822;37.330;2023-04-29T00:08:26;99310.22;;;6.46;54.57
72942;BME280;69665;55.822;37.330;2023-04-29T00:10:51;99305.00;;;6.46;55.84
72942;BME280;69665;55.822;37.330;2023-04-29T00:13:17;99256.69;;;6.27;57.09
72942;BME280;69665;55.822;37.330;2023-04-29T00:15:43;99284.78;;;6.52;56.12
72942;BME280;69665;55.822;37.330;2023-04-29T00:18:09;99279.78;;;6.44;56.91
72942;BME280;69665;55.822;37.330;2023-04-29T00:20:35;99296.81;;;6.59;56.67
72942;BME280;69665;55.822;37.330;2023-04-29T00:23:02;99291.53;;;6.60;56.10
72942;BME280;69665;55.822;37.330;2023-04-29T00:25:28;99280.66;;;6.44;53.50
72942;BME280;69665;55.822;37.330;2023-04-29T00:27:53;99292.75;;;6.49;55.61
72942;BME280;69665;55.822;37.330;2023-04-29T00:30:19;99282.44;;;6.42;56.25
72942;BME280;69665;55.822;37.330;2023-04-29T00:32:44;99289.44;;;6.42;53.22
72942;BME280;69665;55.822;37.330;2023-04-29T00:35:10;99284.34;;;6.36;53.41
72942;BME280;69665;55.822;37.330;2023-04-29T00:37:36;99274.16;;;6.25;55.03
72942;BME280;69665;55.822;37.330;2023-04-29T00:40:02;99252.81;;;6.09;53.39
72942;BME280;69665;55.822;37.330;2023-04-29T00:42:30;99277.66;;;6.26;54.72
72942;BME280;69665;55.822;37.330;2023-04-29T00:44:57;99274.13;;;6.27;54.36
72942;BME280;69665;55.822;37.330;2023-04-29T00:47:23;99255.28;;;6.16;54.09
72942;BME280;69665;55.822;37.330;2023-04-29T00:49:48;99256.91;;;6.20;55.17
72942;BME280;69665;55.822;37.330;2023-04-29T00:52:15;99261.91;;;6.27;54.53
72942;BME280;69665;55.822;37.330;2023-04-29T00:54:42;99253.22;;;6.27;55.93
72942;BME280;69665;55.822;37.330;2023-04-29T00:57:11;99257.63;;;6.25;55.03
72942;BME280;69665;55.822;37.330;2023-04-29T00:59:37;99271.31;;;6.34;54.59
72942;BME280;69665;55.822;37.330;2023-04-29T01:02:03;99275.56;;;6.38;55.76
72942;BME280;69665;55.822;37.330;2023-04-29T01:04:30;99262.09;;;6.21;51.99
72942;BME280;69665;55.822;37.330;2023-04-29T01:09:52;99274.28;;;6.22;55.88
72942;BME280;69665;55.822;37.330;2023-04-29T01:17:40;99279.31;;;6.28;56.28
72942;BME280;69665;55.822;37.330;2023-04-29T01:20:08;99279.31;;;6.28;53.79
72942;BME280;69665;55.822;37.330;2023-04-29T01:22:34;99284.78;;;6.21;55.78
72942;BME280;69665;55.822;37.330;2023-04-29T01:24:59;99277.78;;;6.21;54.73
72942;BME280;69665;55.822;37.330;2023-04-29T01:27:30;99280.09;;;6.32;54.21
72942;BME280;69665;55.822;37.330;2023-04-29T01:41:22;99258.81;;;6.13;53.79
72942;BME280;69665;55.822;37.330;2023-04-29T01:44:01;99253.59;;;6.13;52.03
72942;BME280;69665;55.822;37.330;2023-04-29T01:46:29;99260.63;;;6.11;53.54
72942;BME280;69665;55.822;37.330;2023-04-29T01:48:57;99265.00;;;6.10;55.57
72942;BME280;69665;55.822;37.330;2023-04-29T01:51:22;99261.41;;;6.15;54.30
72942;BME280;69665;55.822;37.330;2023-04-29T01:53:48;99249.31;;;6.10;55.17
72942;BME280;69665;55.822;37.330;2023-04-29T01:56:14;99246.78;;;6.07;54.44
72942;BME280;69665;55.822;37.330;2023-04-29T01:58:57;99260.63;;;6.11;51.25
72942;BME280;69665;55.822;37.330;2023-04-29T02:01:35;99253.63;;;6.11;54.64
72942;BME280;69665;55.822;37.330;2023-04-29T02:04:01;99249.31;;;6.10;54.63
72942;BME280;69665;55.822;37.330;2023-04-29T02:06:28;99253.63;;;6.11;54.95
72942;BME280;69665;55.822;37.330;2023-04-29T02:08:59;99265.00;;;6.10;54.29
72942;BME280;69665;55.822;37.330;2023-04-29T02:11:25;99270.03;;;6.18;55.07
72942;BME280;69665;55.822;37.330;2023-04-29T02:13:53;99264.94;;;6.12;53.62
72942;BME280;69665;55.822;37.330;2023-04-29T02:16:19;99261.56;;;6.08;51.67
72942;BME280;69665;55.822;37.330;2023-04-29T02:18:57;99276.38;;;6.08;54.74
72942;BME280;69665;55.822;37.330;2023-04-29T02:21:23;99279.69;;;6.15;55.35
72942;BME280;69665;55.822;37.330;2023-04-29T02:23:48;99286.56;;;6.19;55.50
72942;BME280;69665;55.822;37.330;2023-04-29T02:26:14;99285.78;;;6.15;51.78
72942;BME280;69665;55.822;37.330;2023-04-29T02:28:40;99283.19;;;6.15;51.12
72942;BME280;69665;55.822;37.330;2023-04-29T02:31:06;99284.38;;;6.02;54.75
72942;BME280;69665;55.822;37.330;2023-04-29T02:33:32;99283.44;;;6.04;55.80
72942;BME280;69665;55.822;37.330;2023-04-29T02:35:57;99282.97;;;6.23;53.78
72942;BME280;69665;55.822;37.330;2023-04-29T02:38:24;99280.44;;;6.20;55.62
72942;BME280;69665;55.822;37.330;2023-04-29T02:40:49;99296.75;;;6.28;55.46
72942;BME280;69665;55.822;37.330;2023-04-29T02:43:15;99287.97;;;6.30;55.59
72942;BME280;69665;55.822;37.330;2023-04-29T02:45:43;99288.81;;;6.32;53.29
72942;BME280;69665;55.822;37.330;2023-04-29T02:48:09;99294.22;;;6.25;54.36
72942;BME280;69665;55.822;37.330;2023-04-29T02:50:35;99305.72;;;6.19;54.48
72942;BME280;69665;55.822;37.330;2023-04-29T02:53:01;99306.75;;;6.13;49.52
72942;BME280;69665;55.822;37.330;2023-04-29T02:55:27;99309.56;;;6.04;53.95
72942;BME280;69665;55.822;37.330;2023-04-29T02:57:56;99315.41;;;6.16;55.64
72942;BME280;69665;55.822;37.330;2023-04-29T03:00:21;99317.09;;;6.18;53.69
72942;BME280;69665;55.822;37.330;2023-04-29T03:02:48;99315.28;;;6.20;55.36
72942;BME280;69665;55.822;37.330;2023-04-29T03:05:13;99325.19;;;6.07;50.46
72942;BME280;69665;55.822;37.330;2023-04-29T03:07:39;99318.59;;;5.93;50.96
72942;BME280;69665;55.822;37.330;2023-04-29T03:10:06;99332.38;;;5.98;50.29
72942;BME280;69665;55.822;37.330;2023-04-29T03:12:34;99346.56;;;5.88;51.47
72942;BME280;69665;55.822;37.330;2023-04-29T03:15:00;99360.09;;;5.68;54.34
72942;BME280;69665;55.822;37.330;2023-04-29T03:17:26;99369.31;;;5.83;56.34
72942;BME280;69665;55.822;37.330;2023-04-29T03:19:52;99372.56;;;5.94;55.38
72942;BME280;69665;55.822;37.330;2023-04-29T03:22:18;99377.91;;;5.89;55.67
72942;BME280;69665;55.822;37.330;2023-04-29T03:24:44;99375.25;;;5.91;56.95
72942;BME280;69665;55.822;37.330;2023-04-29T03:27:10;99387.19;;;6.01;54.86
72942;BME280;69665;55.822;37.330;2023-04-29T03:29:35;99383.59;;;6.06;56.75
72942;BME280;69665;55.822;37.330;2023-04-29T03:32:02;99385.22;;;6.10;57.26
72942;BME280;69665;55.822;37.330;2023-04-29T03:34:28;99375.28;;;5.89;53.99
72942;BME280;69665;55.822;37.330;2023-04-29T03:37:23;99387.16;;;6.02;53.99
72942;BME280;69665;55.822;37.330;2023-04-29T03:39:55;99379.59;;;5.92;52.44
72942;BME280;69665;55.822;37.330;2023-04-29T03:42:21;99355.66;;;5.71;52.66
72942;BME280;69665;55.822;37.330;2023-04-29T03:44:46;99394.44;;;5.90;54.50
72942;BME280;69665;55.822;37.330;2023-04-29T03:47:12;99402.13;;;5.97;52.17
72942;BME280;69665;55.822;37.330;2023-04-29T03:49:38;99398.44;;;6.04;55.70
72942;BME280;69665;55.822;37.330;2023-04-29T03:52:04;99390.47;;;6.10;54.68
72942;BME280;69665;55.822;37.330;2023-04-29T03:54:30;99408.59;;;6.18;51.31
72942;BME280;69665;55.822;37.330;2023-04-29T03:56:56;99402.59;;;6.13;53.02
72942;BME280;69665;55.822;37.330;2023-04-29T03:59:23;99408.66;;;6.15;55.25
72942;BME280;69665;55.822;37.330;2023-04-29T04:01:50;99403.34;;;6.18;52.27
72942;BME280;69665;55.822;37.330;2023-04-29T04:04:16;99419.91;;;6.19;54.54
72942;BME280;69665;55.822;37.330;2023-04-29T04:06:45;99421.28;;;6.33;55.60
72942;BME280;69665;55.822;37.330;2023-04-29T04:09:17;99407.56;;;6.24;51.13
72942;BME280;69665;55.822;37.330;2023-04-29T04:11:44;99420.00;;;6.14;50.65
72942;BME280;69665;55.822;37.330;2023-04-29T04:14:10;99409.47;;;6.17;53.89
72942;BME280;69665;55.822;37.330;2023-04-29T04:16:36;99415.97;;;6.36;53.13
72942;BME280;69665;55.822;37.330;2023-04-29T04:19:02;99414.41;;;6.63;56.24
72942;BME280;69665;55.822;37.330;2023-04-29T04:21:30;99399.53;;;6.65;55.51
72942;BME280;69665;55.822;37.330;2023-04-29T04:24:04;99403.91;;;6.97;51.89
72942;BME280;69665;55.822;37.330;2023-04-29T04:26:30;99400.34;;;7.31;52.75
72942;BME280;69665;55.822;37.330;2023-04-29T04:29:17;99413.56;;;7.56;52.62
72942;BME280;69665;55.822;37.330;2023-04-29T04:31:51;99409.97;;;7.60;53.33
72942;BME280;69665;55.822;37.330;2023-04-29T04:34:18;99420.56;;;7.55;53.14
72942;BME280;69665;55.822;37.330;2023-04-29T04:36:48;99426.16;;;7.74;55.51
72942;BME280;69665;55.822;37.330;2023-04-29T04:39:13;99417.56;;;7.69;53.42
72942;BME280;69665;55.822;37.330;2023-04-29T04:41:39;99417.59;;;7.67;50.69
72942;BME280;69665;55.822;37.330;2023-04-29T04:44:05;99401.25;;;7.59;51.83
72942;BME280;69665;55.822;37.330;2023-04-29T04:46:39;99413.19;;;7.69;52.18
72942;BME280;69665;55.822;37.330;2023-04-29T04:49:11;99408.06;;;7.65;51.53
72942;BME280;69665;55.822;37.330;2023-04-29T04:51:43;99424.75;;;7.62;51.77
72942;BME280;69665;55.822;37.330;2023-04-29T04:54:10;99408.94;;;7.65;50.83
72942;BME280;69665;55.822;37.330;2023-04-29T04:56:37;99414.16;;;7.65;51.26
72942;BME280;69665;55.822;37.330;2023-04-29T04:59:04;99395.78;;;7.67;51.64
72942;BME280;69665;55.822;37.330;2023-04-29T05:01:30;99403.06;;;7.57;48.25
72942;BME280;69665;55.822;37.330;2023-04-29T05:03:56;99404.84;;;7.55;50.89
72942;BME280;69665;55.822;37.330;2023-04-29T05:06:22;99394.06;;;7.66;50.91
72942;BME280;69665;55.822;37.330;2023-04-29T05:08:49;99404.97;;;7.80;50.80
72942;BME280;69665;55.822;37.330;2023-04-29T05:11:19;99406.56;;;7.86;48.52
72942;BME280;69665;55.822;37.330;2023-04-29T05:13:58;99410.09;;;7.84;49.78
72942;BME280;69665;55.822;37.330;2023-04-29T05:16:25;99398.28;;;7.71;45.46
72942;BME280;69665;55.822;37.330;2023-04-29T05:18:52;99403.50;;;7.71;46.81
72942;BME280;69665;55.822;37.330;2023-04-29T05:21:18;99423.19;;;7.84;49.18
72942;BME280;69665;55.822;37.330;2023-04-29T05:23:45;99419.47;;;7.92;47.40
72942;BME280;69665;55.822;37.330;2023-04-29T05:26:11;99413.56;;;7.85;47.26
72942;BME280;69665;55.822;37.330;2023-04-29T05:28:37;99408.84;;;7.96;48.41
72942;BME280;69665;55.822;37.330;2023-04-29T05:31:03;99416.28;;;8.10;46.87
72942;BME280;69665;55.822;37.330;2023-04-29T05:33:29;99413.88;;;8.04;46.62
72942;BME280;69665;55.822;37.330;2023-04-29T05:35:55;99415.19;;;8.17;48.07
72942;BME280;69665;55.822;37.330;2023-04-29T05:38:21;99420.75;;;8.34;46.73
72942;BME280;69665;55.822;37.330;2023-04-29T05:41:01;99423.09;;;8.43;46.27
72942;BME280;69665;55.822;37.330;2023-04-29T05:43:58;99430.81;;;8.48;48.40
72942;BME280;69665;55.822;37.330;2023-04-29T05:46:24;99418.31;;;8.56;48.93
72942;BME280;69665;55.822;37.330;2023-04-29T05:48:49;99424.56;;;8.78;49.09
72942;BME280;69665;55.822;37.330;2023-04-29T05:51:16;99428.31;;;8.96;48.43
72942;BME280;69665;55.822;37.330;2023-04-29T05:53:42;99423.34;;;9.12;48.84
72942;BME280;69665;55.822;37.330;2023-04-29T05:56:11;99439.88;;;9.15;47.51
72942;BME280;69665;55.822;37.330;2023-04-29T05:58:38;99433.13;;;9.08;46.25
72942;BME280;69665;55.822;37.330;2023-04-29T06:01:04;99438.59;;;9.02;46.77
72942;BME280;69665;55.822;37.330;2023-04-29T06:03:30;99436.34;;;8.92;47.74
72942;BME280;69665;55.822;37.330;2023-04-29T06:06:16;99450.13;;;8.98;47.81
72942;BME280;69665;55.822;37.330;2023-04-29T06:09:00;99455.13;;;9.06;47.35
72942;BME280;69665;55.822;37.330;2023-04-29T06:11:28;99443.66;;;9.08;47.74
72942;BME280;69665;55.822;37.330;2023-04-29T06:13:53;99461.97;;;9.35;46.64
72942;BME280;69665;55.822;37.330;2023-04-29T06:16:19;99463.16;;;9.49;46.96
72942;BME280;69665;55.822;37.330;2023-04-29T06:18:45;99455.41;;;9.70;46.41
72942;BME280;69665;55.822;37.330;2023-04-29T06:21:12;99464.28;;;9.89;46.80
72942;BME280;69665;55.822;37.330;2023-04-29T06:23:38;99455.34;;;10.16;45.91
72942;BME280;69665;55.822;37.330;2023-04-29T06:26:10;99463.72;;;10.28;46.10
72942;BME280;69665;55.822;37.330;2023-04-29T06:28:36;99468.22;;;10.24;44.78
72942;BME280;69665;55.822;37.330;2023-04-29T06:31:02;99459.38;;;10.27;44.92
72942;BME280;69665;55.822;37.330;2023-04-29T06:33:28;99451.97;;;10.36;45.42
72942;BME280;69665;55.822;37.330;2023-04-29T06:35:54;99471.72;;;10.46;44.91
72942;BME280;69665;55.822;37.330;2023-04-29T06:38:46;99466.88;;;10.58;44.50
72942;BME280;69665;55.822;37.330;2023-04-29T06:41:30;99466.50;;;10.67;44.18
72942;BME280;69665;55.822;37.330;2023-04-29T06:44:19;99470.47;;;10.77;44.21
72942;BME280;69665;55.822;37.330;2023-04-29T06:47:00;99473.91;;;10.79;45.19
72942;BME280;69665;55.822;37.330;2023-04-29T06:49:46;99472.84;;;10.83;45.08
72942;BME280;69665;55.822;37.330;2023-04-29T06:52:12;99469.81;;;10.92;44.65
72942;BME280;69665;55.822;37.330;2023-04-29T06:54:38;99473.72;;;11.04;44.99
72942;BME280;69665;55.822;37.330;2023-04-29T06:57:04;99458.09;;;10.99;43.81
72942;BME280;69665;55.822;37.330;2023-04-29T06:59:30;99475.56;;;11.22;43.66
72942;BME280;69665;55.822;37.330;2023-04-29T07:01:57;99481.44;;;11.88;43.81
72942;BME280;69665;55.822;37.330;2023-04-29T07:04:23;99484.94;;;12.07;42.89
72942;BME280;69665;55.822;37.330;2023-04-29T07:06:49;99485.84;;;12.97;43.08
72942;BME280;69665;55.822;37.330;2023-04-29T07:09:15;99479.81;;;13.63;41.10
72942;BME280;69665;55.822;37.330;2023-04-29T07:11:44;99482.09;;;15.54;38.63
72942;BME280;69665;55.822;37.330;2023-04-29T07:14:11;99488.38;;;16.10;38.67
72942;BME280;69665;55.822;37.330;2023-04-29T07:16:37;99488.19;;;15.99;38.69
72942;BME280;69665;55.822;37.330;2023-04-29T07:19:02;99488.75;;;15.61;38.94
72942;BME280;69665;55.822;37.330;2023-04-29T07:21:28;99491.31;;;16.06;38.27
72942;BME280;69665;55.822;37.330;2023-04-29T07:23:55;99493.31;;;16.43;37.11
72942;BME280;69665;55.822;37.330;2023-04-29T07:26:23;99508.03;;;16.08;36.89
72942;BME280;69665;55.822;37.330;2023-04-29T07:28:49;99508.19;;;16.19;37.00
72942;BME280;69665;55.822;37.330;2023-04-29T07:31:17;99505.00;;;16.55;35.83
72942;BME280;69665;55.822;37.330;2023-04-29T07:33:43;99510.03;;;18.40;35.22
72942;BME280;69665;55.822;37.330;2023-04-29T07:36:11;99506.47;;;18.16;34.58
72942;BME280;69665;55.822;37.330;2023-04-29T07:38:37;99507.78;;;17.20;35.13
72942;BME280;69665;55.822;37.330;2023-04-29T07:41:03;99510.63;;;17.94;35.12
72942;BME280;69665;55.822;37.330;2023-04-29T07:43:29;99503.69;;;18.05;34.71
72942;BME280;69665;55.822;37.330;2023-04-29T07:45:55;99500.09;;;20.83;33.65
72942;BME280;69665;55.822;37.330;2023-04-29T07:48:22;99504.88;;;21.43;32.20
72942;BME280;69665;55.822;37.330;2023-04-29T07:50:48;99504.28;;;22.52;30.79
72942;BME280;69665;55.822;37.330;2023-04-29T07:53:16;99520.97;;;21.94;31.31
72942;BME280;69665;55.822;37.330;2023-04-29T07:55:42;99510.66;;;20.95;31.82
72942;BME280;69665;55.822;37.330;2023-04-29T07:58:12;99524.47;;;19.79;32.38
72942;BME280;69665;55.822;37.330;2023-04-29T08:00:38;99531.03;;;20.76;32.29
72942;BME280;69665;55.822;37.330;2023-04-29T08:03:04;99529.63;;;21.77;31.61
72942;BME280;69665;55.822;37.330;2023-04-29T08:05:31;99529.13;;;20.11;32.05
72942;BME280;69665;55.822;37.330;2023-04-29T08:07:57;99536.41;;;19.86;32.32
72942;BME280;69665;55.822;37.330;2023-04-29T08:10:24;99528.53;;;23.87;30.02
72942;BME280;69665;55.822;37.330;2023-04-29T08:12:52;99527.84;;;27.68;25.52
72942;BME280;69665;55.822;37.330;2023-04-29T08:15:18;99533.06;;;29.42;25.97
72942;BME280;69665;55.822;37.330;2023-04-29T08:17:44;99539.75;;;31.31;25.63
72942;BME280;69665;55.822;37.330;2023-04-29T08:20:11;99537.88;;;31.53;24.79
72942;BME280;69665;55.822;37.330;2023-04-29T08:22:37;99537.13;;;28.92;24.90
72942;BME280;69665;55.822;37.330;2023-04-29T08:25:03;99541.69;;;26.06;27.50
72942;BME280;69665;55.822;37.330;2023-04-29T08:27:33;99546.03;;;24.10;27.99
72942;BME280;69665;55.822;37.330;2023-04-29T08:29:59;99558.16;;;22.29;29.87
72942;BME280;69665;55.822;37.330;2023-04-29T08:32:27;99545.00;;;20.79;30.18
72942;BME280;69665;55.822;37.330;2023-04-29T08:34:53;99553.38;;;22.73;29.25
72942;BME280;69665;55.822;37.330;2023-04-29T08:37:19;99545.91;;;25.83;27.96
72942;BME280;69665;55.822;37.330;2023-04-29T08:39:45;99551.25;;;28.80;25.97
72942;BME280;69665;55.822;37.330;2023-04-29T08:42:12;99543.59;;;31.58;24.45
72942;BME280;69665;55.822;37.330;2023-04-29T08:44:42;99549.22;;;33.22;22.08
72942;BME280;69665;55.822;37.330;2023-04-29T08:47:08;99548.00;;;34.44;22.74
72942;BME280;69665;55.822;37.330;2023-04-29T08:49:34;99548.41;;;35.43;21.19
72942;BME280;69665;55.822;37.330;2023-04-29T08:52:02;99541.13;;;36.12;21.26
72942;BME280;69665;55.822;37.330;2023-04-29T08:54:28;99544.63;;;32.75;23.04
72942;BME280;69665;55.822;37.330;2023-04-29T08:56:55;99537.50;;;29.12;24.88
72942;BME280;69665;55.822;37.330;2023-04-29T08:59:22;99560.31;;;27.68;25.67
72942;BME280;69665;55.822;37.330;2023-04-29T09:01:50;99551.75;;;29.97;24.51
72942;BME280;69665;55.822;37.330;2023-04-29T09:04:40;99552.03;;;31.42;21.28
72942;BME280;69665;55.822;37.330;2023-04-29T09:07:07;99543.31;;;33.12;22.56
72942;BME280;69665;55.822;37.330;2023-04-29T09:09:38;99542.88;;;33.15;21.26
72942;BME280;69665;55.822;37.330;2023-04-29T09:12:04;99557.94;;;31.09;22.84
72942;BME280;69665;55.822;37.330;2023-04-29T09:14:31;99553.22;;;28.94;23.73
72942;BME280;69665;55.822;37.330;2023-04-29T09:17:00;99571.84;;;26.95;24.20
72942;BME280;69665;55.822;37.330;2023-04-29T09:19:33;99559.91;;;24.06;26.76
72942;BME280;69665;55.822;37.330;2023-04-29T09:22:03;99569.34;;;22.04;27.54
72942;BME280;69665;55.822;37.330;2023-04-29T09:24:31;99569.91;;;21.02;28.37
72942;BME280;69665;55.822;37.330;2023-04-29T09:26:58;99570.72;;;20.59;29.23
72942;BME280;69665;55.822;37.330;2023-04-29T09:29:24;99568.09;;;19.80;28.75
72942;BME280;69665;55.822;37.330;2023-04-29T09:31:50;99570.19;;;19.17;29.13
72942;BME280;69665;55.822;37.330;2023-04-29T09:34:39;99584.38;;;18.45;28.42
72942;BME280;69665;55.822;37.330;2023-04-29T09:37:25;99578.47;;;17.63;29.29
72942;BME280;69665;55.822;37.330;2023-04-29T09:39:53;99594.31;;;17.13;29.93
72942;BME280;69665;55.822;37.330;2023-04-29T09:42:18;99601.91;;;16.78;30.10
72942;BME280;69665;55.822;37.330;2023-04-29T09:44:44;99598.13;;;16.53;30.56
72942;BME280;69665;55.822;37.330;2023-04-29T09:47:10;99583.44;;;16.34;30.86
72942;BME280;69665;55.822;37.330;2023-04-29T09:49:42;99596.72;;;16.34;30.85
72942;BME280;69665;55.822;37.330;2023-04-29T09:52:11;99580.41;;;16.25;30.55
72942;BME280;69665;55.822;37.330;2023-04-29T09:54:39;99598.25;;;16.23;30.77
72942;BME280;69665;55.822;37.330;2023-04-29T09:57:06;99605.28;;;16.24;30.54
72942;BME280;69665;55.822;37.330;2023-04-29T09:59:34;99609.25;;;16.32;30.81
72942;BME280;69665;55.822;37.330;2023-04-29T10:02:01;99606.97;;;16.68;30.51
72942;BME280;69665;55.822;37.330;2023-04-29T10:04:34;99608.66;;;16.83;30.39
72942;BME280;69665;55.822;37.330;2023-04-29T10:07:00;99608.47;;;16.72;29.75
72942;BME280;69665;55.822;37.330;2023-04-29T10:09:27;99610.09;;;16.75;29.83
72942;BME280;69665;55.822;37.330;2023-04-29T10:11:53;99615.13;;;16.51;29.81
72942;BME280;69665;55.822;37.330;2023-04-29T10:14:21;99616.44;;;16.15;30.09
72942;BME280;69665;55.822;37.330;2023-04-29T10:19:38;99624.69;;;15.97;30.68
72942;BME280;69665;55.822;37.330;2023-04-29T10:22:08;99628.66;;;15.89;30.53
72942;BME280;69665;55.822;37.330;2023-04-29T10:24:36;99625.50;;;15.69;30.55
72942;BME280;69665;55.822;37.330;2023-04-29T10:27:06;99637.84;;;15.38;30.66
72942;BME280;69665;55.822;37.330;2023-04-29T10:29:33;99636.69;;;15.28;30.52
72942;BME280;69665;55.822;37.330;2023-04-29T10:31:59;99631.78;;;15.36;30.73
72942;BME280;69665;55.822;37.330;2023-04-29T10:34:27;99633.38;;;15.54;30.70
72942;BME280;69665;55.822;37.330;2023-04-29T10:36:53;99627.38;;;15.67;30.42
72942;BME280;69665;55.822;37.330;2023-04-29T10:39:31;99644.69;;;15.88;30.08
72942;BME280;69665;55.822;37.330;2023-04-29T10:42:01;99635.84;;;15.87;30.30
72942;BME280;69665;55.822;37.330;2023-04-29T10:44:29;99632.22;;;16.04;30.84
72942;BME280;69665;55.822;37.330;2023-04-29T10:47:18;99643.81;;;16.32;29.48
72942;BME280;69665;55.822;37.330;2023-04-29T10:50:14;99647.13;;;16.21;28.89
72942;BME280;69665;55.822;37.330;2023-04-29T10:53:03;99640.00;;;16.50;29.29
72942;BME280;69665;55.822;37.330;2023-04-29T10:55:30;99630.50;;;16.60;29.27
72942;BME280;69665;55.822;37.330;2023-04-29T10:57:56;99637.34;;;16.78;29.51
72942;BME280;69665;55.822;37.330;2023-04-29T11:00:26;99623.56;;;16.86;28.96
72942;BME280;69665;55.822;37.330;2023-04-29T11:02:53;99623.88;;;17.08;28.72
72942;BME280;69665;55.822;37.330;2023-04-29T11:08:18;99633.91;;;17.71;28.48
72942;BME280;69665;55.822;37.330;2023-04-29T11:10:53;99636.72;;;17.82;28.36
72942;BME280;69665;55.822;37.330;2023-04-29T11:13:26;99639.75;;;17.63;27.74
72942;BME280;69665;55.822;37.330;2023-04-29T11:16:03;99648.31;;;17.81;27.95
72942;BME280;69665;55.822;37.330;2023-04-29T11:18:28;99643.25;;;17.91;27.55
72942;BME280;69665;55.822;37.330;2023-04-29T11:23:29;99655.53;;;17.40;27.79
72942;BME280;69665;55.822;37.330;2023-04-29T11:25:56;99652.25;;;17.22;28.18
72942;BME280;69665;55.822;37.330;2023-04-29T11:28:23;99658.50;;;16.94;28.13
72942;BME280;69665;55.822;37.330;2023-04-29T11:31:09;99664.09;;;17.04;27.78
72942;BME280;69665;55.822;37.330;2023-04-29T11:33:35;99649.78;;;17.19;28.29
72942;BME280;69665;55.822;37.330;2023-04-29T11:36:02;99655.94;;;16.92;27.79
72942;BME280;69665;55.822;37.330;2023-04-29T11:38:28;99635.84;;;16.60;27.62
72942;BME280;69665;55.822;37.330;2023-04-29T11:40:58;99656.13;;;16.47;28.05
72942;BME280;69665;55.822;37.330;2023-04-29T11:43:24;99664.22;;;16.31;27.91
72942;BME280;69665;55.822;37.330;2023-04-29T11:45:51;99661.78;;;15.98;28.53
72942;BME280;69665;55.822;37.330;2023-04-29T11:48:22;99645.94;;;15.82;28.65
72942;BME280;69665;55.822;37.330;2023-04-29T11:50:56;99668.81;;;15.99;28.80
72942;BME280;69665;55.822;37.330;2023-04-29T11:53:25;99663.66;;;15.82;28.22
72942;BME280;69665;55.822;37.330;2023-04-29T11:55:52;99659.97;;;15.84;28.67
72942;BME280;69665;55.822;37.330;2023-04-29T11:58:22;99668.13;;;15.81;28.05
72942;BME280;69665;55.822;37.330;2023-04-29T12:00:49;99663.09;;;15.61;28.57
72942;BME280;69665;55.822;37.330;2023-04-29T12:03:18;99644.78;;;15.41;28.65
72942;BME280;69665;55.822;37.330;2023-04-29T12:05:54;99664.41;;;15.38;27.91
72942;BME280;69665;55.822;37.330;2023-04-29T12:08:22;99662.38;;;15.27;28.85
72942;BME280;69665;55.822;37.330;2023-04-29T12:10:48;99660.66;;;15.26;29.03
72942;BME280;69665;55.822;37.330;2023-04-29T12:13:15;99658.19;;;15.23;28.46
72942;BME280;69665;55.822;37.330;2023-04-29T12:15:41;99657.41;;;15.21;28.58
72942;BME280;69665;55.822;37.330;2023-04-29T12:18:07;99670.75;;;15.20;28.67
72942;BME280;69665;55.822;37.330;2023-04-29T12:20:33;99663.75;;;15.19;29.06
72942;BME280;69665;55.822;37.330;2023-04-29T12:23:17;99653.31;;;15.00;28.37
72942;BME280;69665;55.822;37.330;2023-04-29T12:25:49;99659.66;;;14.98;28.75
72942;BME280;69665;55.822;37.330;2023-04-29T12:28:15;99631.84;;;14.73;29.25
72942;BME280;69665;55.822;37.330;2023-04-29T12:30:49;99651.00;;;14.78;28.68
72942;BME280;69665;55.822;37.330;2023-04-29T12:35:50;99651.41;;;14.38;29.25
72942;BME280;69665;55.822;37.330;2023-04-29T12:38:23;99654.81;;;14.24;29.14
72942;BME280;69665;55.822;37.330;2023-04-29T12:40:52;99656.84;;;14.19;28.85
72942;BME280;69665;55.822;37.330;2023-04-29T12:43:18;99660.56;;;14.15;29.07
72942;BME280;69665;55.822;37.330;2023-04-29T12:45:44;99656.16;;;13.98;28.96
72942;BME280;69665;55.822;37.330;2023-04-29T12:48:11;99657.41;;;13.91;29.13
72942;BME280;69665;55.822;37.330;2023-04-29T12:50:38;99655.69;;;13.90;29.42
72942;BME280;69665;55.822;37.330;2023-04-29T12:53:05;99655.22;;;13.99;29.20
72942;BME280;69665;55.822;37.330;2023-04-29T12:55:32;99654.03;;;14.05;28.81
72942;BME280;69665;55.822;37.330;2023-04-29T12:57:59;99655.66;;;14.07;29.44
72942;BME280;69665;55.822;37.330;2023-04-29T13:00:24;99651.78;;;14.14;29.46
72942;BME280;69665;55.822;37.330;2023-04-29T13:02:50;99650.69;;;14.18;29.48
72942;BME280;69665;55.822;37.330;2023-04-29T13:05:15;99651.38;;;14.22;28.73
72942;BME280;69665;55.822;37.330;2023-04-29T13:07:41;99639.16;;;14.19;29.19
72942;BME280;69665;55.822;37.330;2023-04-29T13:10:07;99649.94;;;14.32;29.43
72942;BME280;69665;55.822;37.330;2023-04-29T13:12:33;99630.59;;;14.14;29.20
72942;BME280;69665;55.822;37.330;2023-04-29T13:14:58;99653.41;;;14.17;29.11
72942;BME280;69665;55.822;37.330;2023-04-29T13:17:24;99655.75;;;14.06;28.72
72942;BME280;69665;55.822;37.330;2023-04-29T13:19:50;99655.31;;;13.98;28.52
72942;BME280;69665;55.822;37.330;2023-04-29T13:22:16;99653.75;;;13.93;28.83
72942;BME280;69665;55.822;37.330;2023-04-29T13:24:41;99656.31;;;13.95;28.99
72942;BME280;69665;55.822;37.330;2023-04-29T13:27:07;99652.19;;;13.89;29.12
72942;BME280;69665;55.822;37.330;2023-04-29T13:29:33;99652.56;;;13.82;28.94
72942;BME280;69665;55.822;37.330;2023-04-29T13:31:58;99639.13;;;13.69;28.82